Algorta, Spain
Current Conditions -  °F | °C
As of 2:30 PM on Friday 28 Nov 2014 (Local Time) from LEBB Reporting Station
Few Clouds Few Clouds  
Wind Chill: 66°   Ceiling: Unl
Heat Index: 66°   Visibility: 6mi
Dew Point: 48°   Wind: 15mph
Humidity: 52%   Direction: 160°SSE
Pressure: 29.09"   Gusts: NA
Location:  43.35°N, 3.01°W
Report Text: LEBB 281330Z 16013KT 110V240 9999 FEW040 19/09 Q0985 NOSIG
Loading
Personal Weather Stations






























Interactive Weather Map New forecast layout! Learn more

10-Day Weather Forecast

Advertisements
Track Severe Weather on mobile